1892 Hurricane NOT_NAMED (1892256N15341)


IBTrACS version v04r00. Visit IBTrACS website for data access.
Please direct all questions to the IBTrACS Q and A forum

Storm track - Intensity - Wind Radii - Intensity Data - Source Data - All data

Summary Information

Storm ID 1892256N15341
Start Sep 12 00Z
Max Intensity 85 kt (Sep 14 12Z)
End Sep 23 18Z
ATCF IDs AL051892
Track status Best track data.

Storm track plot

Map of storm track

Intensity plots

Map of storm track

Radial wind information

No radial wind information for this storm


Position and Intensity Table

BASIN ISO_TIME_________ NATURE LAT LON WMO WIND USA WIND
degrees north degrees east kts kts
NA 1892-09-12 00:00:00 TS 15.30 -19.50 35 35
NA 03:00:00 TS 15.35 -19.99 37
NA 06:00:00 TS 15.40 -20.50 40 40
NA 09:00:00 TS 15.45 -21.02 42
NA 12:00:00 TS 15.50 -21.50 45 45
NA 15:00:00 TS 15.55 -21.92 47
NA 18:00:00 TS 15.60 -22.30 50 50
NA 21:00:00 TS 15.64 -22.67 52
NA 1892-09-13 00:00:00 TS 15.70 -23.00 55 55
NA 03:00:00 TS 15.80 -23.31 57
NA 06:00:00 TS 15.90 -23.60 60 60
NA 09:00:00 TS 15.95 -23.84 62
NA 12:00:00 TS 16.00 -24.10 65 65
NA 15:00:00 TS 16.09 -24.43 67
NA 18:00:00 TS 16.20 -24.80 70 70
NA 21:00:00 TS 16.30 -25.15 72
NA 1892-09-14 00:00:00 TS 16.40 -25.50 75 75
NA 03:00:00 TS 16.49 -25.84 77
NA 06:00:00 TS 16.60 -26.20 80 80
NA 09:00:00 TS 16.75 -26.60 82
NA 12:00:00 TS 16.90 -27.00 85 85
NA 15:00:00 TS 17.01 -27.36 85
NA 18:00:00 TS 17.10 -27.70 85 85
NA 21:00:00 TS 17.21 -28.04 85
NA 1892-09-15 00:00:00 TS 17.30 -28.40 85 85
NA 03:00:00 TS 17.35 -28.79 85
NA 06:00:00 TS 17.40 -29.20 85 85
NA 09:00:00 TS 17.48 -29.58 85
NA 12:00:00 TS 17.60 -30.00 85 85
NA 15:00:00 TS 17.78 -30.52 85
NA 18:00:00 TS 18.00 -31.10 85 85
NA 21:00:00 TS 18.19 -31.70 85
NA 1892-09-16 00:00:00 TS 18.40 -32.30 85 85
NA 03:00:00 TS 18.64 -32.86 85
NA 06:00:00 TS 18.90 -33.40 85 85
NA 09:00:00 TS 19.15 -33.95 85
NA 12:00:00 TS 19.40 -34.50 85 85
NA 15:00:00 TS 19.64 -35.05 85
NA 18:00:00 TS 19.90 -35.60 85 85
NA 21:00:00 TS 20.20 -36.15 85
NA 1892-09-17 00:00:00 TS 20.50 -36.70 85 85
NA 03:00:00 TS 20.76 -37.25 85
NA 06:00:00 TS 21.00 -37.80 85 85
NA 09:00:00 TS 21.25 -38.37 85
NA 12:00:00 TS 21.50 -38.90 85 85
NA 15:00:00 TS 21.76 -39.37 85
NA 18:00:00 TS 22.00 -39.80 85 85
NA 21:00:00 TS 22.20 -40.21 85
NA 1892-09-18 00:00:00 TS 22.40 -40.60 85 85
NA 03:00:00 TS 22.64 -41.00 85
NA 06:00:00 TS 22.90 -41.40 85 85
NA 09:00:00 TS 23.15 -41.79 85
NA 12:00:00 TS 23.40 -42.20 85 85
NA 15:00:00 TS 23.64 -42.64 85
NA 18:00:00 TS 23.90 -43.10 85 85
NA 21:00:00 TS 24.20 -43.55 85
NA 1892-09-19 00:00:00 TS 24.50 -44.00 85 85
NA 03:00:00 TS 24.75 -44.45 85
NA 06:00:00 TS 25.00 -44.90 85 85
NA 09:00:00 TS 25.30 -45.36 85
NA 12:00:00 TS 25.60 -45.80 85 85
NA 15:00:00 TS 25.85 -46.21 85
NA 18:00:00 TS 26.10 -46.60 85 85
NA 21:00:00 TS 26.40 -47.00 85
NA 1892-09-20 00:00:00 TS 26.70 -47.40 85 85
NA 03:00:00 TS 26.96 -47.81 85
NA 06:00:00 TS 27.20 -48.20 85 85
NA 09:00:00 TS 27.44 -48.57 85
NA 12:00:00 TS 27.70 -48.90 85 85
NA 15:00:00 TS 27.98 -49.22 82
NA 18:00:00 TS 28.30 -49.50 80 80
NA 21:00:00 TS 28.63 -49.77 80
NA 1892-09-21 00:00:00 TS 29.00 -50.00 80 80
NA 03:00:00 TS 29.39 -50.22 80
NA 06:00:00 TS 29.80 -50.40 80 80
NA 09:00:00 TS 30.18 -50.57 77
NA 12:00:00 TS 30.60 -50.70 75 75
NA 15:00:00 TS 31.08 -50.84 72
NA 18:00:00 TS 31.60 -50.90 70 70
NA 21:00:00 TS 32.09 -50.85 70
NA 1892-09-22 00:00:00 TS 32.60 -50.70 70 70
NA 03:00:00 TS 33.15 -50.53 70
NA 06:00:00 TS 33.70 -50.30 70 70
NA 09:00:00 TS 34.22 -50.04 67
NA 12:00:00 TS 34.70 -49.70 65 65
NA 15:00:00 TS 35.11 -49.26 62
NA 18:00:00 TS 35.50 -48.70 60 60
NA 21:00:00 TS 35.91 -48.07 55
NA 1892-09-23 00:00:00 TS 36.30 -47.30 50 50
NA 03:00:00 TS 36.61 -46.41 47
NA 06:00:00 TS 36.90 -45.40 45 45
NA 09:00:00 TS 37.19 -44.26 40
NA 12:00:00 TS 37.50 -43.20 35 35
NA 15:00:00 TS 37.84 -42.45 30
NA 18:00:00 TS 38.20 -41.90 25 25

Source Information

Agency Information
USA hurdat2-1851-2018-051019.txt:Line=7265:UNNAMED
TOKYO
CMA
HKO
NEWDELHI
REUNION
BOM
NADI
WELLINGTON
DS824
TD9636
TD9635
NEUMANN
MLC

All available IBTrACS Data

SEASON BASIN SUBBASIN ISO_TIME_________ NATURE LAT LON WMO WIND WMO AGENCY DIST2LAND LANDFALL IFLAG USA AGENCY USA ATCF_ID USA LAT USA LON USA STATUS USA WIND USA SSHS STORM SPEED STORM DIR
Year degrees north degrees east kts km km degrees north degrees east kts 1 kts degrees
1892 NA NA 1892-09-12 00:00:00 TS 15.30 -19.50 35 hurdat_atl 225 225 O_____________ hurdat_atl AL051892 15.30 -19.50 TS 35 0 10 276
1892 NA NA 03:00:00 TS 15.35 -19.99 279 279 P_____________ AL051892 15.35 -19.99 TS 37 0 10 276
1892 NA NA 06:00:00 TS 15.40 -20.50 40 hurdat_atl 331 331 O_____________ hurdat_atl AL051892 15.40 -20.50 TS 40 0 10 276
1892 NA NA 09:00:00 TS 15.45 -21.02 384 384 P_____________ AL051892 15.45 -21.02 TS 42 0 10 276
1892 NA NA 12:00:00 TS 15.50 -21.50 45 hurdat_atl 438 438 O_____________ hurdat_atl AL051892 15.50 -21.50 TS 45 0 9 277
1892 NA NA 15:00:00 TS 15.55 -21.92 480 480 P_____________ AL051892 15.55 -21.92 TS 47 0 8 277
1892 NA NA 18:00:00 TS 15.60 -22.30 50 hurdat_atl 525 525 O_____________ hurdat_atl AL051892 15.60 -22.30 TS 50 0 7 277
1892 NA NA 21:00:00 TS 15.64 -22.67 567 567 P_____________ AL051892 15.64 -22.67 TS 52 0 7 278
1892 NA NA 1892-09-13 00:00:00 TS 15.70 -23.00 55 hurdat_atl 600 600 O_____________ hurdat_atl AL051892 15.70 -23.00 TS 55 0 6 284
1892 NA NA 03:00:00 TS 15.80 -23.31 634 634 P_____________ AL051892 15.80 -23.31 TS 57 0 6 289
1892 NA NA 06:00:00 TS 15.90 -23.60 60 hurdat_atl 668 668 O_____________ hurdat_atl AL051892 15.90 -23.60 TS 60 0 5 287
1892 NA NA 09:00:00 TS 15.95 -23.84 689 689 P_____________ AL051892 15.95 -23.84 TS 62 0 5 282
1892 NA NA 12:00:00 TS 16.00 -24.10 65 hurdat_atl 722 722 O_____________ hurdat_atl AL051892 16.00 -24.10 HU 65 1 6 284
1892 NA NA 15:00:00 TS 16.09 -24.43 756 756 P_____________ AL051892 16.09 -24.43 HU 67 1 7 287
1892 NA NA 18:00:00 TS 16.20 -24.80 70 hurdat_atl 800 800 O_____________ hurdat_atl AL051892 16.20 -24.80 HU 70 1 7 287
1892 NA NA 21:00:00 TS 16.30 -25.15 844 844 P_____________ AL051892 16.30 -25.15 HU 72 1 7 287
1892 NA NA 1892-09-14 00:00:00 TS 16.40 -25.50 75 hurdat_atl 878 878 O_____________ hurdat_atl AL051892 16.40 -25.50 HU 75 1 7 286
1892 NA NA 03:00:00 TS 16.49 -25.84 911 911 P_____________ AL051892 16.49 -25.84 HU 77 1 7 287
1892 NA NA 06:00:00 TS 16.60 -26.20 80 hurdat_atl 955 955 O_____________ hurdat_atl AL051892 16.60 -26.20 HU 80 1 8 290
1892 NA NA 09:00:00 TS 16.75 -26.60 1002 1002 P_____________ AL051892 16.75 -26.60 HU 82 1 8 291
1892 NA NA 12:00:00 TS 16.90 -27.00 85 hurdat_atl 1046 1046 O_____________ hurdat_atl AL051892 16.90 -27.00 HU 85 2 8 290
1892 NA NA 15:00:00 TS 17.01 -27.36 1090 1090 P_____________ AL051892 17.01 -27.36 HU 85 2 7 287
1892 NA NA 18:00:00 TS 17.10 -27.70 85 hurdat_atl 1123 1123 O_____________ hurdat_atl AL051892 17.10 -27.70 HU 85 2 7 287
1892 NA NA 21:00:00 TS 17.21 -28.04 1157 1157 P_____________ AL051892 17.21 -28.04 HU 85 2 7 287
1892 NA NA 1892-09-15 00:00:00 TS 17.30 -28.40 85 hurdat_atl 1201 1201 O_____________ hurdat_atl AL051892 17.30 -28.40 HU 85 2 7 281
1892 NA NA 03:00:00 TS 17.35 -28.79 1242 1242 P_____________ AL051892 17.35 -28.79 HU 85 2 8 277
1892 NA NA 06:00:00 TS 17.40 -29.20 85 hurdat_atl 1286 1286 O_____________ hurdat_atl AL051892 17.40 -29.20 HU 85 2 8 280
1892 NA NA 09:00:00 TS 17.48 -29.58 1330 1330 P_____________ AL051892 17.48 -29.58 HU 85 2 8 285
1892 NA NA 12:00:00 TS 17.60 -30.00 85 hurdat_atl 1374 1374 O_____________ hurdat_atl AL051892 17.60 -30.00 HU 85 2 10 289
1892 NA NA 15:00:00 TS 17.78 -30.52 1430 1430 P_____________ AL051892 17.78 -30.52 HU 85 2 11 291
1892 NA NA 18:00:00 TS 18.00 -31.10 85 hurdat_atl 1497 1497 O_____________ hurdat_atl AL051892 18.00 -31.10 HU 85 2 12 290
1892 NA NA 21:00:00 TS 18.19 -31.70 1557 1557 P_____________ AL051892 18.19 -31.70 HU 85 2 12 289
1892 NA NA 1892-09-16 00:00:00 TS 18.40 -32.30 85 hurdat_atl 1613 1613 O_____________ hurdat_atl AL051892 18.40 -32.30 HU 85 2 12 292
1892 NA NA 03:00:00 TS 18.64 -32.86 1671 1669 P_____________ AL051892 18.64 -32.86 HU 85 2 12 296
1892 NA NA 06:00:00 TS 18.90 -33.40 85 hurdat_atl 1717 1717 O_____________ hurdat_atl AL051892 18.90 -33.40 HU 85 2 12 296
1892 NA NA 09:00:00 TS 19.15 -33.95 1775 1773 P_____________ AL051892 19.15 -33.95 HU 85 2 12 296
1892 NA NA 12:00:00 TS 19.40 -34.50 85 hurdat_atl 1822 1822 O_____________ hurdat_atl AL051892 19.40 -34.50 HU 85 2 12 295
1892 NA NA 15:00:00 TS 19.64 -35.05 1882 1880 P_____________ AL051892 19.64 -35.05 HU 85 2 12 296
1892 NA NA 18:00:00 TS 19.90 -35.60 85 hurdat_atl 1930 1930 O_____________ hurdat_atl AL051892 19.90 -35.60 HU 85 2 12 298
1892 NA NA 21:00:00 TS 20.20 -36.15 1989 1988 P_____________ AL051892 20.20 -36.15 HU 85 2 12 300
1892 NA NA 1892-09-17 00:00:00 TS 20.50 -36.70 85 hurdat_atl 2038 2038 O_____________ hurdat_atl AL051892 20.50 -36.70 HU 85 2 12 298
1892 NA NA 03:00:00 TS 20.76 -37.25 2098 2098 P_____________ AL051892 20.76 -37.25 HU 85 2 11 296
1892 NA NA 06:00:00 TS 21.00 -37.80 85 hurdat_atl 2148 2148 O_____________ hurdat_atl AL051892 21.00 -37.80 HU 85 2 12 295
1892 NA NA 09:00:00 TS 21.25 -38.37 2209 2208 P_____________ AL051892 21.25 -38.37 HU 85 2 11 296
1892 NA NA 12:00:00 TS 21.50 -38.90 85 hurdat_atl 2259 2259 O_____________ hurdat_atl AL051892 21.50 -38.90 HU 85 2 11 298
1892 NA NA 15:00:00 TS 21.76 -39.37 2309 2309 P_____________ AL051892 21.76 -39.37 HU 85 2 10 301
1892 NA NA 18:00:00 TS 22.00 -39.80 85 hurdat_atl 2331 2321 O_____________ hurdat_atl AL051892 22.00 -39.80 HU 85 2 9 300
1892 NA NA 21:00:00 TS 22.20 -40.21 2324 2314 P_____________ AL051892 22.20 -40.21 HU 85 2 8 298
1892 NA NA 1892-09-18 00:00:00 TS 22.40 -40.60 85 hurdat_atl 2317 2311 O_____________ hurdat_atl AL051892 22.40 -40.60 HU 85 2 9 301
1892 NA NA 03:00:00 TS 22.64 -41.00 2312 2310 P_____________ AL051892 22.64 -41.00 HU 85 2 9 304
1892 NA NA 06:00:00 TS 22.90 -41.40 85 hurdat_atl 2317 2312 O_____________ hurdat_atl AL051892 22.90 -41.40 HU 85 2 9 305
1892 NA NA 09:00:00 TS 23.15 -41.79 2314 2314 P_____________ AL051892 23.15 -41.79 HU 85 2 9 304
1892 NA NA 12:00:00 TS 23.40 -42.20 85 hurdat_atl 2322 2316 O_____________ hurdat_atl AL051892 23.40 -42.20 HU 85 2 9 302
1892 NA NA 15:00:00 TS 23.64 -42.64 2321 2321 P_____________ AL051892 23.64 -42.64 HU 85 2 10 301
1892 NA NA 18:00:00 TS 23.90 -43.10 85 hurdat_atl 2326 2321 O_____________ hurdat_atl AL051892 23.90 -43.10 HU 85 2 10 304
1892 NA NA 21:00:00 TS 24.20 -43.55 2333 2333 P_____________ AL051892 24.20 -43.55 HU 85 2 10 306
1892 NA NA 1892-09-19 00:00:00 TS 24.50 -44.00 85 hurdat_atl 2333 2299 O_____________ hurdat_atl AL051892 24.50 -44.00 HU 85 2 10 304
1892 NA NA 03:00:00 TS 24.75 -44.45 2289 2258 P_____________ AL051892 24.75 -44.45 HU 85 2 10 301
1892 NA NA 06:00:00 TS 25.00 -44.90 85 hurdat_atl 2258 2225 O_____________ hurdat_atl AL051892 25.00 -44.90 HU 85 2 10 304
1892 NA NA 09:00:00 TS 25.30 -45.36 2219 2190 P_____________ AL051892 25.30 -45.36 HU 85 2 10 306
1892 NA NA 12:00:00 TS 25.60 -45.80 85 hurdat_atl 2190 2159 O_____________ hurdat_atl AL051892 25.60 -45.80 HU 85 2 9 306
1892 NA NA 15:00:00 TS 25.85 -46.21 2159 2132 P_____________ AL051892 25.85 -46.21 HU 85 2 9 305
1892 NA NA 18:00:00 TS 26.10 -46.60 85 hurdat_atl 2132 2107 O_____________ hurdat_atl AL051892 26.10 -46.60 HU 85 2 9 308
1892 NA NA 21:00:00 TS 26.40 -47.00 2107 2082 P_____________ AL051892 26.40 -47.00 HU 85 2 9 310
1892 NA NA 1892-09-20 00:00:00 TS 26.70 -47.40 85 hurdat_atl 2082 2055 O_____________ hurdat_atl AL051892 26.70 -47.40 HU 85 2 9 308
1892 NA NA 03:00:00 TS 26.96 -47.81 2059 2032 P_____________ AL051892 26.96 -47.81 HU 85 2 9 305
1892 NA NA 06:00:00 TS 27.20 -48.20 85 hurdat_atl 2032 2015 O_____________ hurdat_atl AL051892 27.20 -48.20 HU 85 2 8 306
1892 NA NA 09:00:00 TS 27.44 -48.57 2007 1996 P_____________ AL051892 27.44 -48.57 HU 85 2 8 309
1892 NA NA 12:00:00 TS 27.70 -48.90 85 hurdat_atl 1996 1980 O_____________ hurdat_atl AL051892 27.70 -48.90 HU 85 2 8 313
1892 NA NA 15:00:00 TS 27.98 -49.22 1986 1971 P_____________ AL051892 27.98 -49.22 HU 82 1 8 319
1892 NA NA 18:00:00 TS 28.30 -49.50 80 hurdat_atl 1977 1969 O_____________ hurdat_atl AL051892 28.30 -49.50 HU 80 1 8 323
1892 NA NA 21:00:00 TS 28.63 -49.77 1969 1969 P_____________ AL051892 28.63 -49.77 HU 80 1 8 328
1892 NA NA 1892-09-21 00:00:00 TS 29.00 -50.00 80 hurdat_atl 1977 1932 O_____________ hurdat_atl AL051892 29.00 -50.00 HU 80 1 9 332
1892 NA NA 03:00:00 TS 29.39 -50.22 1932 1886 P_____________ AL051892 29.39 -50.22 HU 80 1 9 336
1892 NA NA 06:00:00 TS 29.80 -50.40 80 hurdat_atl 1886 1839 O_____________ hurdat_atl AL051892 29.80 -50.40 HU 80 1 9 339
1892 NA NA 09:00:00 TS 30.18 -50.57 1839 1794 P_____________ AL051892 30.18 -50.57 HU 77 1 8 342
1892 NA NA 12:00:00 TS 30.60 -50.70 75 hurdat_atl 1794 1737 O_____________ hurdat_atl AL051892 30.60 -50.70 HU 75 1 9 346
1892 NA NA 15:00:00 TS 31.08 -50.84 1737 1681 P_____________ AL051892 31.08 -50.84 HU 72 1 10 350
1892 NA NA 18:00:00 TS 31.60 -50.90 70 hurdat_atl 1681 1625 O_____________ hurdat_atl AL051892 31.60 -50.90 HU 70 1 10 0
1892 NA NA 21:00:00 TS 32.09 -50.85 1626 1572 P_____________ AL051892 32.09 -50.85 HU 70 1 10 10
1892 NA NA 1892-09-22 00:00:00 TS 32.60 -50.70 70 hurdat_atl 1572 1518 O_____________ hurdat_atl AL051892 32.60 -50.70 HU 70 1 11 14
1892 NA NA 03:00:00 TS 33.15 -50.53 1519 1456 P_____________ AL051892 33.15 -50.53 HU 70 1 12 17
1892 NA NA 06:00:00 TS 33.70 -50.30 70 hurdat_atl 1456 1404 O_____________ hurdat_atl AL051892 33.70 -50.30 HU 70 1 11 21
1892 NA NA 09:00:00 TS 34.22 -50.04 1405 1356 P_____________ AL051892 34.22 -50.04 HU 67 1 11 26
1892 NA NA 12:00:00 TS 34.70 -49.70 65 hurdat_atl 1356 1320 O_____________ hurdat_atl AL051892 34.70 -49.70 HU 65 1 11 36
1892 NA NA 15:00:00 TS 35.11 -49.26 1320 1288 P_____________ AL051892 35.11 -49.26 HU 62 0 11 46
1892 NA NA 18:00:00 TS 35.50 -48.70 60 hurdat_atl 1290 1263 O_____________ hurdat_atl AL051892 35.50 -48.70 TS 60 0 13 51
1892 NA NA 21:00:00 TS 35.91 -48.07 1263 1242 P_____________ AL051892 35.91 -48.07 TS 55 0 14 55
1892 NA NA 1892-09-23 00:00:00 TS 36.30 -47.30 50 hurdat_atl 1245 1238 O_____________ hurdat_atl AL051892 36.30 -47.30 TS 50 0 15 62
1892 NA NA 03:00:00 TS 36.61 -46.41 1245 1239 P_____________ AL051892 36.61 -46.41 TS 47 0 16 69
1892 NA NA 06:00:00 TS 36.90 -45.40 45 hurdat_atl 1255 1254 O_____________ hurdat_atl AL051892 36.90 -45.40 TS 45 0 18 71
1892 NA NA 09:00:00 TS 37.19 -44.26 1275 1275 P_____________ AL051892 37.19 -44.26 TS 40 0 18 71
1892 NA NA 12:00:00 TS 37.50 -43.20 35 hurdat_atl 1302 1298 O_____________ hurdat_atl AL051892 37.50 -43.20 TS 35 0 16 66
1892 NA NA 15:00:00 TS 37.84 -42.45 1312 1306 P_____________ AL051892 37.84 -42.45 TS 30 -1 12 56
1892 NA NA 18:00:00 TS 38.20 -41.90 25 hurdat_atl 1311 O_____________ hurdat_atl AL051892 38.20 -41.90 TD 25 -1 11 50